sensor_id;sensor_type;location;lat;lon;timestamp;temperature;humidity
48589;DHT22;34369;51.174;6.738;2023-03-01T00:00:21;-0.10;48.60
48589;DHT22;34369;51.174;6.738;2023-03-01T00:02:55;-0.10;47.90
48589;DHT22;34369;51.174;6.738;2023-03-01T00:05:30;-0.10;47.80
48589;DHT22;34369;51.174;6.738;2023-03-01T00:08:05;-0.20;47.80
48589;DHT22;34369;51.174;6.738;2023-03-01T00:10:43;-0.20;47.90
48589;DHT22;34369;51.174;6.738;2023-03-01T00:13:18;-0.20;47.90
48589;DHT22;34369;51.174;6.738;2023-03-01T00:15:52;-0.20;47.90
48589;DHT22;34369;51.174;6.738;2023-03-01T00:18:31;-0.20;47.90
48589;DHT22;34369;51.174;6.738;2023-03-01T00:21:09;-0.30;47.90
48589;DHT22;34369;51.174;6.738;2023-03-01T00:23:44;-0.30;47.80
48589;DHT22;34369;51.174;6.738;2023-03-01T00:26:23;-0.30;47.90
48589;DHT22;34369;51.174;6.738;2023-03-01T00:28:58;-0.20;48.00
48589;DHT22;34369;51.174;6.738;2023-03-01T00:31:34;-0.30;47.80
48589;DHT22;34369;51.174;6.738;2023-03-01T00:34:10;-0.30;47.80
48589;DHT22;34369;51.174;6.738;2023-03-01T00:36:44;-0.30;47.90
48589;DHT22;34369;51.174;6.738;2023-03-01T00:39:21;-0.30;47.80
48589;DHT22;34369;51.174;6.738;2023-03-01T00:42:00;-0.30;47.90
48589;DHT22;34369;51.174;6.738;2023-03-01T00:44:36;-0.40;48.30
48589;DHT22;34369;51.174;6.738;2023-03-01T00:47:10;-0.40;47.90
48589;DHT22;34369;51.174;6.738;2023-03-01T00:49:46;-0.50;47.90
48589;DHT22;34369;51.174;6.738;2023-03-01T00:52:19;-0.50;47.80
48589;DHT22;34369;51.174;6.738;2023-03-01T00:54:54;-0.60;47.80
48589;DHT22;34369;51.174;6.738;2023-03-01T00:57:30;-0.60;47.90
48589;DHT22;34369;51.174;6.738;2023-03-01T01:00:08;-0.60;48.00
48589;DHT22;34369;51.174;6.738;2023-03-01T01:02:43;-0.70;48.00
48589;DHT22;34369;51.174;6.738;2023-03-01T01:05:19;-0.70;47.90
48589;DHT22;34369;51.174;6.738;2023-03-01T01:07:53;-0.70;48.00
48589;DHT22;34369;51.174;6.738;2023-03-01T01:10:27;-0.80;48.00
48589;DHT22;34369;51.174;6.738;2023-03-01T01:13:03;-0.80;48.00
48589;DHT22;34369;51.174;6.738;2023-03-01T01:15:38;-0.90;48.20
48589;DHT22;34369;51.174;6.738;2023-03-01T01:18:13;-0.90;48.10
48589;DHT22;34369;51.174;6.738;2023-03-01T01:20:45;-0.90;48.20
48589;DHT22;34369;51.174;6.738;2023-03-01T01:23:24;-0.90;48.20
48589;DHT22;34369;51.174;6.738;2023-03-01T01:26:02;-0.90;48.20
48589;DHT22;34369;51.174;6.738;2023-03-01T01:28:42;-1.00;48.30
48589;DHT22;34369;51.174;6.738;2023-03-01T01:31:17;-1.00;48.40
48589;DHT22;34369;51.174;6.738;2023-03-01T01:33:55;-1.00;48.20
48589;DHT22;34369;51.174;6.738;2023-03-01T01:36:28;-1.10;48.30
48589;DHT22;34369;51.174;6.738;2023-03-01T01:39:02;-1.10;48.30
48589;DHT22;34369;51.174;6.738;2023-03-01T01:41:36;-1.10;48.40
48589;DHT22;34369;51.174;6.738;2023-03-01T01:44:19;-1.20;48.40
48589;DHT22;34369;51.174;6.738;2023-03-01T01:46:57;-1.30;49.00
48589;DHT22;34369;51.174;6.738;2023-03-01T01:49:37;-1.30;48.70
48589;DHT22;34369;51.174;6.738;2023-03-01T01:52:17;-1.40;48.70
48589;DHT22;34369;51.174;6.738;2023-03-01T01:54:55;-1.40;48.90
48589;DHT22;34369;51.174;6.738;2023-03-01T01:57:35;-1.50;48.70
48589;DHT22;34369;51.174;6.738;2023-03-01T02:00:17;-1.50;48.80
48589;DHT22;34369;51.174;6.738;2023-03-01T02:02:57;-1.50;49.40
48589;DHT22;34369;51.174;6.738;2023-03-01T02:05:38;-1.60;49.10
48589;DHT22;34369;51.174;6.738;2023-03-01T02:08:19;-1.60;49.40
48589;DHT22;34369;51.174;6.738;2023-03-01T02:10:54;-1.70;49.10
48589;DHT22;34369;51.174;6.738;2023-03-01T02:13:31;-1.70;49.00
48589;DHT22;34369;51.174;6.738;2023-03-01T02:16:10;-1.70;49.00
48589;DHT22;34369;51.174;6.738;2023-03-01T02:18:47;-1.80;50.50
48589;DHT22;34369;51.174;6.738;2023-03-01T02:21:38;-1.80;49.00
48589;DHT22;34369;51.174;6.738;2023-03-01T02:24:24;-1.90;50.10
48589;DHT22;34369;51.174;6.738;2023-03-01T02:27:07;-1.90;49.50
48589;DHT22;34369;51.174;6.738;2023-03-01T02:29:44;-1.90;49.50
48589;DHT22;34369;51.174;6.738;2023-03-01T02:32:21;-1.90;49.50
48589;DHT22;34369;51.174;6.738;2023-03-01T02:34:57;-2.00;49.60
48589;DHT22;34369;51.174;6.738;2023-03-01T02:37:31;-2.00;49.60
48589;DHT22;34369;51.174;6.738;2023-03-01T02:40:07;-2.00;49.70
48589;DHT22;34369;51.174;6.738;2023-03-01T02:42:48;-2.00;49.90
48589;DHT22;34369;51.174;6.738;2023-03-01T02:45:27;-2.00;50.10
48589;DHT22;34369;51.174;6.738;2023-03-01T02:48:01;-2.00;50.10
48589;DHT22;34369;51.174;6.738;2023-03-01T02:50:57;-1.90;49.90
48589;DHT22;34369;51.174;6.738;2023-03-01T02:53:48;-2.00;51.40
48589;DHT22;34369;51.174;6.738;2023-03-01T02:56:29;-2.00;50.80
48589;DHT22;34369;51.174;6.738;2023-03-01T02:59:04;-1.90;50.00
48589;DHT22;34369;51.174;6.738;2023-03-01T03:01:39;-1.90;50.00
48589;DHT22;34369;51.174;6.738;2023-03-01T03:04:17;-1.90;50.10
48589;DHT22;34369;51.174;6.738;2023-03-01T03:06:52;-1.90;50.00
48589;DHT22;34369;51.174;6.738;2023-03-01T03:09:26;-1.90;49.90
48589;DHT22;34369;51.174;6.738;2023-03-01T03:12:00;-2.00;49.90
48589;DHT22;34369;51.174;6.738;2023-03-01T03:14:34;-2.00;49.90
48589;DHT22;34369;51.174;6.738;2023-03-01T03:17:12;-2.00;49.80
48589;DHT22;34369;51.174;6.738;2023-03-01T03:19:46;-2.00;50.00
48589;DHT22;34369;51.174;6.738;2023-03-01T03:22:19;-2.00;49.90
48589;DHT22;34369;51.174;6.738;2023-03-01T03:24:52;-2.00;50.00
48589;DHT22;34369;51.174;6.738;2023-03-01T03:27:28;-2.10;50.00
48589;DHT22;34369;51.174;6.738;2023-03-01T03:30:07;-2.10;50.20
48589;DHT22;34369;51.174;6.738;2023-03-01T03:32:46;-2.10;50.10
48589;DHT22;34369;51.174;6.738;2023-03-01T03:35:25;-2.20;50.30
48589;DHT22;34369;51.174;6.738;2023-03-01T03:38:04;-2.20;50.10
48589;DHT22;34369;51.174;6.738;2023-03-01T03:40:49;-2.20;50.10
48589;DHT22;34369;51.174;6.738;2023-03-01T03:43:24;-2.30;50.20
48589;DHT22;34369;51.174;6.738;2023-03-01T03:45:59;-2.30;50.10
48589;DHT22;34369;51.174;6.738;2023-03-01T03:48:40;-2.30;50.10
48589;DHT22;34369;51.174;6.738;2023-03-01T03:51:18;-2.30;50.50
48589;DHT22;34369;51.174;6.738;2023-03-01T03:53:54;-2.40;50.40
48589;DHT22;34369;51.174;6.738;2023-03-01T03:56:29;-2.50;50.40
48589;DHT22;34369;51.174;6.738;2023-03-01T03:59:04;-2.50;50.50
48589;DHT22;34369;51.174;6.738;2023-03-01T04:01:38;-2.50;50.60
48589;DHT22;34369;51.174;6.738;2023-03-01T04:04:14;-2.50;50.70
48589;DHT22;34369;51.174;6.738;2023-03-01T04:06:49;-2.50;50.90
48589;DHT22;34369;51.174;6.738;2023-03-01T04:09:23;-2.50;50.80
48589;DHT22;34369;51.174;6.738;2023-03-01T04:11:57;-2.50;51.00
48589;DHT22;34369;51.174;6.738;2023-03-01T04:14:32;-2.50;51.00
48589;DHT22;34369;51.174;6.738;2023-03-01T04:17:07;-2.50;51.00
48589;DHT22;34369;51.174;6.738;2023-03-01T04:19:41;-2.50;51.00
48589;DHT22;34369;51.174;6.738;2023-03-01T04:22:20;-2.50;51.10
48589;DHT22;34369;51.174;6.738;2023-03-01T04:24:54;-2.50;51.00
48589;DHT22;34369;51.174;6.738;2023-03-01T04:27:29;-2.60;51.10
48589;DHT22;34369;51.174;6.738;2023-03-01T04:30:07;-2.60;51.20
48589;DHT22;34369;51.174;6.738;2023-03-01T04:32:41;-2.60;51.30
48589;DHT22;34369;51.174;6.738;2023-03-01T04:35:16;-2.60;51.30
48589;DHT22;34369;51.174;6.738;2023-03-01T04:37:49;-2.60;51.50
48589;DHT22;34369;51.174;6.738;2023-03-01T04:40:22;-2.60;51.40
48589;DHT22;34369;51.174;6.738;2023-03-01T04:42:55;-2.60;51.40
48589;DHT22;34369;51.174;6.738;2023-03-01T04:45:28;-2.60;51.50
48589;DHT22;34369;51.174;6.738;2023-03-01T04:48:00;-2.70;51.50
48589;DHT22;34369;51.174;6.738;2023-03-01T04:50:36;-2.70;51.50
48589;DHT22;34369;51.174;6.738;2023-03-01T04:53:08;-2.70;51.70
48589;DHT22;34369;51.174;6.738;2023-03-01T04:55:43;-2.70;51.60
48589;DHT22;34369;51.174;6.738;2023-03-01T04:58:16;-2.70;51.80
48589;DHT22;34369;51.174;6.738;2023-03-01T05:00:49;-2.70;51.70
48589;DHT22;34369;51.174;6.738;2023-03-01T05:03:22;-2.70;51.70
48589;DHT22;34369;51.174;6.738;2023-03-01T05:05:58;-2.70;51.60
48589;DHT22;34369;51.174;6.738;2023-03-01T05:08:32;-2.70;51.90
48589;DHT22;34369;51.174;6.738;2023-03-01T05:11:06;-2.70;51.70
48589;DHT22;34369;51.174;6.738;2023-03-01T05:13:41;-2.80;51.70
48589;DHT22;34369;51.174;6.738;2023-03-01T05:16:13;-2.80;51.70
48589;DHT22;34369;51.174;6.738;2023-03-01T05:18:47;-2.80;51.70
48589;DHT22;34369;51.174;6.738;2023-03-01T05:21:22;-2.80;51.70
48589;DHT22;34369;51.174;6.738;2023-03-01T05:23:55;-2.80;51.90
48589;DHT22;34369;51.174;6.738;2023-03-01T05:26:29;-2.80;51.80
48589;DHT22;34369;51.174;6.738;2023-03-01T05:29:02;-2.80;51.80
48589;DHT22;34369;51.174;6.738;2023-03-01T05:31:37;-2.80;51.90
48589;DHT22;34369;51.174;6.738;2023-03-01T05:34:09;-2.80;52.10
48589;DHT22;34369;51.174;6.738;2023-03-01T05:36:45;-2.90;52.00
48589;DHT22;34369;51.174;6.738;2023-03-01T05:39:17;-2.90;52.20
48589;DHT22;34369;51.174;6.738;2023-03-01T05:41:53;-2.90;52.10
48589;DHT22;34369;51.174;6.738;2023-03-01T05:44:27;-2.90;52.50
48589;DHT22;34369;51.174;6.738;2023-03-01T05:47:00;-2.90;52.20
48589;DHT22;34369;51.174;6.738;2023-03-01T05:49:33;-2.90;52.20
48589;DHT22;34369;51.174;6.738;2023-03-01T05:52:08;-2.90;52.30
48589;DHT22;34369;51.174;6.738;2023-03-01T05:54:46;-2.90;52.50
48589;DHT22;34369;51.174;6.738;2023-03-01T05:57:20;-2.90;52.40
48589;DHT22;34369;51.174;6.738;2023-03-01T05:59:57;-2.90;52.50
48589;DHT22;34369;51.174;6.738;2023-03-01T06:02:35;-2.90;52.50
48589;DHT22;34369;51.174;6.738;2023-03-01T06:05:13;-2.90;52.50
48589;DHT22;34369;51.174;6.738;2023-03-01T06:07:51;-2.90;52.60
48589;DHT22;34369;51.174;6.738;2023-03-01T06:10:27;-2.90;52.70
48589;DHT22;34369;51.174;6.738;2023-03-01T06:13:03;-2.90;52.60
48589;DHT22;34369;51.174;6.738;2023-03-01T06:15:40;-2.80;54.50
48589;DHT22;34369;51.174;6.738;2023-03-01T06:18:16;-2.90;52.50
48589;DHT22;34369;51.174;6.738;2023-03-01T06:20:54;-2.80;54.20
48589;DHT22;34369;51.174;6.738;2023-03-01T06:23:35;-2.80;52.70
48589;DHT22;34369;51.174;6.738;2023-03-01T06:26:07;-2.80;52.50
48589;DHT22;34369;51.174;6.738;2023-03-01T06:28:40;-2.80;52.40
48589;DHT22;34369;51.174;6.738;2023-03-01T06:31:12;-2.80;52.40
48589;DHT22;34369;51.174;6.738;2023-03-01T06:33:44;-2.80;52.50
48589;DHT22;34369;51.174;6.738;2023-03-01T06:36:16;-2.80;52.60
48589;DHT22;34369;51.174;6.738;2023-03-01T06:38:50;-2.80;52.60
48589;DHT22;34369;51.174;6.738;2023-03-01T06:41:22;-2.70;52.70
48589;DHT22;34369;51.174;6.738;2023-03-01T06:43:54;-2.70;52.70
48589;DHT22;34369;51.174;6.738;2023-03-01T06:46:26;-2.70;52.70
48589;DHT22;34369;51.174;6.738;2023-03-01T06:48:57;-2.60;52.80
48589;DHT22;34369;51.174;6.738;2023-03-01T06:51:30;-2.60;52.80
48589;DHT22;34369;51.174;6.738;2023-03-01T06:54:03;-2.60;52.80
48589;DHT22;34369;51.174;6.738;2023-03-01T06:56:35;-2.60;52.90
48589;DHT22;34369;51.174;6.738;2023-03-01T06:59:07;-2.50;52.70
48589;DHT22;34369;51.174;6.738;2023-03-01T07:01:39;-2.50;52.80
48589;DHT22;34369;51.174;6.738;2023-03-01T07:04:12;-2.50;52.80
48589;DHT22;34369;51.174;6.738;2023-03-01T07:06:44;-2.50;52.80
48589;DHT22;34369;51.174;6.738;2023-03-01T07:09:17;-2.40;52.80
48589;DHT22;34369;51.174;6.738;2023-03-01T07:11:50;-2.30;52.80
48589;DHT22;34369;51.174;6.738;2023-03-01T07:14:22;-2.20;52.80
48589;DHT22;34369;51.174;6.738;2023-03-01T07:16:56;-2.20;53.30
48589;DHT22;34369;51.174;6.738;2023-03-01T07:19:28;-2.00;54.10
48589;DHT22;34369;51.174;6.738;2023-03-01T07:22:00;-1.70;55.00
48589;DHT22;34369;51.174;6.738;2023-03-01T07:24:33;-1.30;55.70
48589;DHT22;34369;51.174;6.738;2023-03-01T07:27:05;-0.90;56.00
48589;DHT22;34369;51.174;6.738;2023-03-01T07:29:37;-0.40;56.20
48589;DHT22;34369;51.174;6.738;2023-03-01T07:32:09;0.10;56.20
48589;DHT22;34369;51.174;6.738;2023-03-01T07:34:42;0.60;55.50
48589;DHT22;34369;51.174;6.738;2023-03-01T07:37:14;1.00;55.20
48589;DHT22;34369;51.174;6.738;2023-03-01T07:39:48;1.40;54.70
48589;DHT22;34369;51.174;6.738;2023-03-01T07:42:20;1.70;53.70
48589;DHT22;34369;51.174;6.738;2023-03-01T07:44:52;2.00;53.00
48589;DHT22;34369;51.174;6.738;2023-03-01T07:47:24;2.40;53.00
48589;DHT22;34369;51.174;6.738;2023-03-01T07:49:58;2.60;52.60
48589;DHT22;34369;51.174;6.738;2023-03-01T07:52:31;3.00;52.10
48589;DHT22;34369;51.174;6.738;2023-03-01T07:55:06;3.20;51.10
48589;DHT22;34369;51.174;6.738;2023-03-01T07:57:38;3.40;50.80
48589;DHT22;34369;51.174;6.738;2023-03-01T08:00:12;3.60;50.70
48589;DHT22;34369;51.174;6.738;2023-03-01T08:02:44;3.80;50.40
48589;DHT22;34369;51.174;6.738;2023-03-01T08:05:16;4.10;50.50
48589;DHT22;34369;51.174;6.738;2023-03-01T08:07:48;4.40;50.20
48589;DHT22;34369;51.174;6.738;2023-03-01T08:10:21;4.70;49.70
48589;DHT22;34369;51.174;6.738;2023-03-01T08:12:53;5.00;49.40
48589;DHT22;34369;51.174;6.738;2023-03-01T08:15:25;5.30;48.90
48589;DHT22;34369;51.174;6.738;2023-03-01T08:17:57;5.70;48.00
48589;DHT22;34369;51.174;6.738;2023-03-01T08:20:29;6.00;48.00
48589;DHT22;34369;51.174;6.738;2023-03-01T08:23:00;6.30;47.90
48589;DHT22;34369;51.174;6.738;2023-03-01T08:25:34;6.70;47.40
48589;DHT22;34369;51.174;6.738;2023-03-01T08:28:06;7.00;46.80
48589;DHT22;34369;51.174;6.738;2023-03-01T08:30:37;7.30;45.90
48589;DHT22;34369;51.174;6.738;2023-03-01T08:33:09;7.50;45.50
48589;DHT22;34369;51.174;6.738;2023-03-01T08:35:41;7.60;44.70
48589;DHT22;34369;51.174;6.738;2023-03-01T08:38:13;7.70;45.00
48589;DHT22;34369;51.174;6.738;2023-03-01T08:40:46;7.80;44.40
48589;DHT22;34369;51.174;6.738;2023-03-01T08:43:18;7.90;44.20
48589;DHT22;34369;51.174;6.738;2023-03-01T08:45:50;8.10;44.00
48589;DHT22;34369;51.174;6.738;2023-03-01T08:48:22;8.20;43.50
48589;DHT22;34369;51.174;6.738;2023-03-01T08:50:53;8.30;43.20
48589;DHT22;34369;51.174;6.738;2023-03-01T08:53:25;8.40;43.70
48589;DHT22;34369;51.174;6.738;2023-03-01T08:56:01;8.60;43.80
48589;DHT22;34369;51.174;6.738;2023-03-01T08:58:33;8.90;42.80
48589;DHT22;34369;51.174;6.738;2023-03-01T09:01:07;9.10;43.60
48589;DHT22;34369;51.174;6.738;2023-03-01T09:03:39;9.40;43.10
48589;DHT22;34369;51.174;6.738;2023-03-01T09:06:12;9.60;43.20
48589;DHT22;34369;51.174;6.738;2023-03-01T09:08:46;10.00;42.40
48589;DHT22;34369;51.174;6.738;2023-03-01T09:11:21;10.30;42.20
48589;DHT22;34369;51.174;6.738;2023-03-01T09:13:54;10.60;41.50
48589;DHT22;34369;51.174;6.738;2023-03-01T09:16:26;11.00;41.20
48589;DHT22;34369;51.174;6.738;2023-03-01T09:19:00;11.10;39.90
48589;DHT22;34369;51.174;6.738;2023-03-01T09:21:32;11.40;39.30
48589;DHT22;34369;51.174;6.738;2023-03-01T09:24:04;11.40;38.90
48589;DHT22;34369;51.174;6.738;2023-03-01T09:26:38;11.40;38.30
48589;DHT22;34369;51.174;6.738;2023-03-01T09:29:10;11.40;38.10
48589;DHT22;34369;51.174;6.738;2023-03-01T09:31:42;11.20;37.80
48589;DHT22;34369;51.174;6.738;2023-03-01T09:34:14;11.10;37.80
48589;DHT22;34369;51.174;6.738;2023-03-01T09:36:49;11.00;37.50
48589;DHT22;34369;51.174;6.738;2023-03-01T09:39:21;10.80;37.40
48589;DHT22;34369;51.174;6.738;2023-03-01T09:41:59;10.60;37.30
48589;DHT22;34369;51.174;6.738;2023-03-01T09:44:37;10.40;36.50
48589;DHT22;34369;51.174;6.738;2023-03-01T09:47:17;10.30;37.00
48589;DHT22;34369;51.174;6.738;2023-03-01T09:49:58;10.00;37.10
48589;DHT22;34369;51.174;6.738;2023-03-01T09:52:38;10.00;36.80
48589;DHT22;34369;51.174;6.738;2023-03-01T09:55:14;9.90;37.10
48589;DHT22;34369;51.174;6.738;2023-03-01T09:57:53;9.80;37.20
48589;DHT22;34369;51.174;6.738;2023-03-01T10:00:37;9.80;37.10
48589;DHT22;34369;51.174;6.738;2023-03-01T10:03:14;9.80;36.90
48589;DHT22;34369;51.174;6.738;2023-03-01T10:05:54;9.80;37.40
48589;DHT22;34369;51.174;6.738;2023-03-01T10:08:36;9.70;37.30
48589;DHT22;34369;51.174;6.738;2023-03-01T10:11:20;9.80;37.10
48589;DHT22;34369;51.174;6.738;2023-03-01T10:13:58;9.80;37.00
48589;DHT22;34369;51.174;6.738;2023-03-01T10:16:40;9.90;37.20
48589;DHT22;34369;51.174;6.738;2023-03-01T10:19:23;10.00;36.50
48589;DHT22;34369;51.174;6.738;2023-03-01T10:21:58;10.00;36.60
48589;DHT22;34369;51.174;6.738;2023-03-01T10:24:35;10.00;36.40
48589;DHT22;34369;51.174;6.738;2023-03-01T10:27:10;10.00;36.60
48589;DHT22;34369;51.174;6.738;2023-03-01T10:29:48;9.90;36.80
48589;DHT22;34369;51.174;6.738;2023-03-01T10:32:24;9.90;36.60
48589;DHT22;34369;51.174;6.738;2023-03-01T10:34:56;9.80;36.80
48589;DHT22;34369;51.174;6.738;2023-03-01T10:37:28;9.80;36.70
48589;DHT22;34369;51.174;6.738;2023-03-01T10:40:03;9.80;36.70
48589;DHT22;34369;51.174;6.738;2023-03-01T10:42:45;9.70;36.20
48589;DHT22;34369;51.174;6.738;2023-03-01T10:45:31;9.60;36.20
48589;DHT22;34369;51.174;6.738;2023-03-01T10:48:11;9.40;35.70
48589;DHT22;34369;51.174;6.738;2023-03-01T10:50:46;9.20;36.10
48589;DHT22;34369;51.174;6.738;2023-03-01T10:53:25;9.10;36.30
48589;DHT22;34369;51.174;6.738;2023-03-01T10:56:01;8.90;36.10
48589;DHT22;34369;51.174;6.738;2023-03-01T10:58:36;8.80;36.40
48589;DHT22;34369;51.174;6.738;2023-03-01T11:04:33;8.80;36.40
48589;DHT22;34369;51.174;6.738;2023-03-01T11:07:39;8.60;36.70
48589;DHT22;34369;51.174;6.738;2023-03-01T11:15:31;8.60;36.50
48589;DHT22;34369;51.174;6.738;2023-03-01T11:19:17;8.60;36.30
48589;DHT22;34369;51.174;6.738;2023-03-01T11:26:52;8.70;36.90
48589;DHT22;34369;51.174;6.738;2023-03-01T11:30:28;9.00;36.70
48589;DHT22;34369;51.174;6.738;2023-03-01T11:33:59;9.20;36.90
48589;DHT22;34369;51.174;6.738;2023-03-01T11:37:35;9.40;36.60
48589;DHT22;34369;51.174;6.738;2023-03-01T11:41:06;9.60;36.50
48589;DHT22;34369;51.174;6.738;2023-03-01T11:48:21;9.70;36.00
48589;DHT22;34369;51.174;6.738;2023-03-01T11:51:56;9.60;35.80
48589;DHT22;34369;51.174;6.738;2023-03-01T12:22:30;10.50;36.50
48589;DHT22;34369;51.174;6.738;2023-03-01T12:25:38;10.60;36.20
48589;DHT22;34369;51.174;6.738;2023-03-01T12:32:46;10.80;36.20
48589;DHT22;34369;51.174;6.738;2023-03-01T12:48:58;12.10;34.80
48589;DHT22;34369;51.174;6.738;2023-03-01T12:59:50;12.30;34.40
48589;DHT22;34369;51.174;6.738;2023-03-01T13:03:25;12.40;34.40
48589;DHT22;34369;51.174;6.738;2023-03-01T13:06:41;12.50;34.00
48589;DHT22;34369;51.174;6.738;2023-03-01T13:10:19;12.70;34.20
48589;DHT22;34369;51.174;6.738;2023-03-01T13:13:39;12.90;34.60
48589;DHT22;34369;51.174;6.738;2023-03-01T13:17:20;13.10;34.30
48589;DHT22;34369;51.174;6.738;2023-03-01T13:20:50;13.50;34.40
48589;DHT22;34369;51.174;6.738;2023-03-01T13:24:36;13.90;34.30
48589;DHT22;34369;51.174;6.738;2023-03-01T13:32:36;14.60;33.40
48589;DHT22;34369;51.174;6.738;2023-03-01T13:35:52;15.00;33.40
48589;DHT22;34369;51.174;6.738;2023-03-01T13:40:00;15.10;32.90
48589;DHT22;34369;51.174;6.738;2023-03-01T13:46:50;15.60;32.40
48589;DHT22;34369;51.174;6.738;2023-03-01T13:53:38;16.00;31.90
48589;DHT22;34369;51.174;6.738;2023-03-01T13:57:32;16.10;32.20
48589;DHT22;34369;51.174;6.738;2023-03-01T14:00:36;16.20;31.30
48589;DHT22;34369;51.174;6.738;2023-03-01T14:03:41;16.30;31.30
48589;DHT22;34369;51.174;6.738;2023-03-01T14:06:43;16.40;31.20
48589;DHT22;34369;51.174;6.738;2023-03-01T14:09:48;16.40;31.40
48589;DHT22;34369;51.174;6.738;2023-03-01T14:13:36;16.40;30.60
48589;DHT22;34369;51.174;6.738;2023-03-01T14:21:14;16.30;30.70
48589;DHT22;34369;51.174;6.738;2023-03-01T14:24:24;16.20;30.80
48589;DHT22;34369;51.174;6.738;2023-03-01T14:27:38;16.10;30.70
48589;DHT22;34369;51.174;6.738;2023-03-01T14:31:04;16.00;31.00
48589;DHT22;34369;51.174;6.738;2023-03-01T14:38:43;15.80;30.40
48589;DHT22;34369;51.174;6.738;2023-03-01T14:42:07;15.60;30.40
48589;DHT22;34369;51.174;6.738;2023-03-01T14:45:30;15.50;30.70
48589;DHT22;34369;51.174;6.738;2023-03-01T14:48:43;15.20;30.20
48589;DHT22;34369;51.174;6.738;2023-03-01T14:55:24;14.70;30.70
48589;DHT22;34369;51.174;6.738;2023-03-01T14:59:01;14.40;30.70
48589;DHT22;34369;51.174;6.738;2023-03-01T15:02:52;14.10;30.80
48589;DHT22;34369;51.174;6.738;2023-03-01T15:06:18;13.90;31.10
48589;DHT22;34369;51.174;6.738;2023-03-01T15:09:18;13.60;31.10
48589;DHT22;34369;51.174;6.738;2023-03-01T15:16:48;13.30;31.20
48589;DHT22;34369;51.174;6.738;2023-03-01T15:20:00;13.10;31.60
48589;DHT22;34369;51.174;6.738;2023-03-01T15:23:12;12.90;31.70
48589;DHT22;34369;51.174;6.738;2023-03-01T15:27:04;12.70;31.80
48589;DHT22;34369;51.174;6.738;2023-03-01T15:30:13;12.50;31.50
48589;DHT22;34369;51.174;6.738;2023-03-01T15:37:02;12.00;32.60
48589;DHT22;34369;51.174;6.738;2023-03-01T15:40:00;11.60;32.00
48589;DHT22;34369;51.174;6.738;2023-03-01T15:43:42;11.40;32.30
48589;DHT22;34369;51.174;6.738;2023-03-01T15:46:50;11.00;32.50
48589;DHT22;34369;51.174;6.738;2023-03-01T15:54:30;10.40;32.80
48589;DHT22;34369;51.174;6.738;2023-03-01T15:58:10;10.00;33.00
48589;DHT22;34369;51.174;6.738;2023-03-01T16:01:14;9.70;33.20
48589;DHT22;34369;51.174;6.738;2023-03-01T16:04:23;9.50;33.60
48589;DHT22;34369;51.174;6.738;2023-03-01T16:07:19;9.30;33.90
48589;DHT22;34369;51.174;6.738;2023-03-01T16:17:44;8.80;34.40
48589;DHT22;34369;51.174;6.738;2023-03-01T16:21:03;8.70;34.50
48589;DHT22;34369;51.174;6.738;2023-03-01T16:24:57;8.60;34.40
48589;DHT22;34369;51.174;6.738;2023-03-01T16:28:11;8.40;34.50
48589;DHT22;34369;51.174;6.738;2023-03-01T16:34:57;8.10;34.70
48589;DHT22;34369;51.174;6.738;2023-03-01T16:38:16;7.90;35.00
48589;DHT22;34369;51.174;6.738;2023-03-01T16:41:16;7.80;35.00
48589;DHT22;34369;51.174;6.738;2023-03-01T16:45:23;7.70;35.00
48589;DHT22;34369;51.174;6.738;2023-03-01T16:48:59;7.50;35.40
48589;DHT22;34369;51.174;6.738;2023-03-01T16:52:28;7.30;35.50
48589;DHT22;34369;51.174;6.738;2023-03-01T16:55:34;7.20;35.50
48589;DHT22;34369;51.174;6.738;2023-03-01T16:59:18;7.00;35.50
48589;DHT22;34369;51.174;6.738;2023-03-01T17:02:37;6.90;35.50
48589;DHT22;34369;51.174;6.738;2023-03-01T17:06:13;6.70;35.90
48589;DHT22;34369;51.174;6.738;2023-03-01T17:09:39;6.50;36.00
48589;DHT22;34369;51.174;6.738;2023-03-01T17:12:50;6.40;36.10
48589;DHT22;34369;51.174;6.738;2023-03-01T17:15:51;6.20;36.30
48589;DHT22;34369;51.174;6.738;2023-03-01T17:19:15;6.10;36.40
48589;DHT22;34369;51.174;6.738;2023-03-01T17:22:52;6.00;36.90
48589;DHT22;34369;51.174;6.738;2023-03-01T17:27:03;5.80;36.90
48589;DHT22;34369;51.174;6.738;2023-03-01T17:30:33;5.70;37.10
48589;DHT22;34369;51.174;6.738;2023-03-01T17:33:50;5.60;37.10
48589;DHT22;34369;51.174;6.738;2023-03-01T17:37:20;5.50;37.10
48589;DHT22;34369;51.174;6.738;2023-03-01T17:44:28;5.30;37.40
48589;DHT22;34369;51.174;6.738;2023-03-01T17:47:28;5.10;37.60
48589;DHT22;34369;51.174;6.738;2023-03-01T17:50:07;5.00;37.70
48589;DHT22;34369;51.174;6.738;2023-03-01T17:53:07;4.90;38.00
48589;DHT22;34369;51.174;6.738;2023-03-01T17:55:45;4.90;38.10
48589;DHT22;34369;51.174;6.738;2023-03-01T17:58:26;4.80;38.20
48589;DHT22;34369;51.174;6.738;2023-03-01T18:01:09;4.70;38.40
48589;DHT22;34369;51.174;6.738;2023-03-01T18:03:45;4.70;38.70
48589;DHT22;34369;51.174;6.738;2023-03-01T18:06:20;4.60;38.90
48589;DHT22;34369;51.174;6.738;2023-03-01T18:09:15;4.50;38.90
48589;DHT22;34369;51.174;6.738;2023-03-01T18:11:52;4.50;39.30
48589;DHT22;34369;51.174;6.738;2023-03-01T18:14:30;4.40;39.20
48589;DHT22;34369;51.174;6.738;2023-03-01T18:17:09;4.40;39.40
48589;DHT22;34369;51.174;6.738;2023-03-01T18:19:43;4.30;39.60
48589;DHT22;34369;51.174;6.738;2023-03-01T18:22:19;4.30;39.60
48589;DHT22;34369;51.174;6.738;2023-03-01T18:24:55;4.20;39.70
48589;DHT22;34369;51.174;6.738;2023-03-01T18:27:30;4.20;39.70
48589;DHT22;34369;51.174;6.738;2023-03-01T18:30:11;4.10;40.00
48589;DHT22;34369;51.174;6.738;2023-03-01T18:32:52;4.10;40.10
48589;DHT22;34369;51.174;6.738;2023-03-01T18:35:28;4.10;40.10
48589;DHT22;34369;51.174;6.738;2023-03-01T18:38:04;4.00;40.20
48589;DHT22;34369;51.174;6.738;2023-03-01T18:40:41;4.00;40.30
48589;DHT22;34369;51.174;6.738;2023-03-01T18:43:23;3.90;40.30
48589;DHT22;34369;51.174;6.738;2023-03-01T18:46:05;3.90;40.40
48589;DHT22;34369;51.174;6.738;2023-03-01T18:48:41;3.80;40.50
48589;DHT22;34369;51.174;6.738;2023-03-01T18:51:17;3.80;40.40
48589;DHT22;34369;51.174;6.738;2023-03-01T18:53:56;3.80;40.60
48589;DHT22;34369;51.174;6.738;2023-03-01T18:56:30;3.70;40.70
48589;DHT22;34369;51.174;6.738;2023-03-01T18:59:06;3.70;40.70
48589;DHT22;34369;51.174;6.738;2023-03-01T19:01:40;3.70;40.70
48589;DHT22;34369;51.174;6.738;2023-03-01T19:04:16;3.60;40.70
48589;DHT22;34369;51.174;6.738;2023-03-01T19:06:49;3.60;40.50
48589;DHT22;34369;51.174;6.738;2023-03-01T19:09:24;3.50;40.70
48589;DHT22;34369;51.174;6.738;2023-03-01T19:12:00;3.50;41.00
48589;DHT22;34369;51.174;6.738;2023-03-01T19:14:36;3.50;40.70
48589;DHT22;34369;51.174;6.738;2023-03-01T19:17:15;3.50;40.90
48589;DHT22;34369;51.174;6.738;2023-03-01T19:19:51;3.50;41.00
48589;DHT22;34369;51.174;6.738;2023-03-01T19:22:26;3.40;41.00
48589;DHT22;34369;51.174;6.738;2023-03-01T19:25:01;3.40;41.00
48589;DHT22;34369;51.174;6.738;2023-03-01T19:27:38;3.40;40.70
48589;DHT22;34369;51.174;6.738;2023-03-01T19:30:13;3.30;41.20
48589;DHT22;34369;51.174;6.738;2023-03-01T19:32:57;3.30;41.30
48589;DHT22;34369;51.174;6.738;2023-03-01T19:35:33;3.20;41.20